createdAt,value
2022-11-06T00:01:38.193Z,4.10
2022-11-06T00:03:41.063Z,4.23
2022-11-06T00:06:02.360Z,4.40
2022-11-06T00:08:04.361Z,3.97
2022-11-06T00:10:06.510Z,4.30
2022-11-06T00:12:08.310Z,4.10
2022-11-06T00:14:10.819Z,4.57
2022-11-06T00:16:13.562Z,3.90
2022-11-06T00:18:15.784Z,4.03
2022-11-06T00:20:18.751Z,4.03
2022-11-06T00:22:20.552Z,3.93
2022-11-06T00:24:23.651Z,4.20
2022-11-06T00:26:27.239Z,4.20
2022-11-06T00:28:29.693Z,4.50
2022-11-06T00:30:32.078Z,3.80
2022-11-06T00:32:33.928Z,4.20
2022-11-06T00:34:36.120Z,3.93
2022-11-06T00:36:38.506Z,4.20
2022-11-06T00:38:40.621Z,4.17
2022-11-06T00:40:42.457Z,4.57
2022-11-06T00:42:45.649Z,4.27
2022-11-06T00:44:47.389Z,4.30
2022-11-06T00:46:49.306Z,4.43
2022-11-06T00:48:52.585Z,4.03
2022-11-06T00:50:55.805Z,3.90
2022-11-06T00:52:57.765Z,4.80
2022-11-06T00:54:59.748Z,3.50
2022-11-06T00:57:01.559Z,4.53
2022-11-06T00:59:05.528Z,4.00
2022-11-06T01:01:30.851Z,4.03
2022-11-06T01:03:33.013Z,4.10
2022-11-06T01:05:34.887Z,4.17
2022-11-06T01:07:36.826Z,4.20
2022-11-06T01:09:38.952Z,4.30
2022-11-06T01:12:11.781Z,4.47
2022-11-06T01:14:11.631Z,3.83
2022-11-06T01:16:15.601Z,4.67
2022-11-06T01:18:17.440Z,4.27
2022-11-06T01:20:21.611Z,4.50
2022-11-06T01:22:23.363Z,3.80
2022-11-06T01:24:28.870Z,4.13
2022-11-06T01:26:38.348Z,3.93
2022-11-06T01:28:42.736Z,4.30
2022-11-06T01:30:44.544Z,3.80
2022-11-06T01:32:46.281Z,3.67
2022-11-06T01:34:51.194Z,4.50
2022-11-06T01:36:52.972Z,3.97
2022-11-06T01:38:56.853Z,4.13
2022-11-06T01:41:00.988Z,3.77
2022-11-06T01:43:04.168Z,4.23
2022-11-06T01:45:24.986Z,3.73
2022-11-06T01:47:29.080Z,3.67
2022-11-06T01:49:38.531Z,3.93
2022-11-06T01:51:45.359Z,3.77
2022-11-06T01:53:47.567Z,4.33
2022-11-06T01:55:53.902Z,4.03
2022-11-06T01:57:57.025Z,4.10
2022-11-06T01:59:59.072Z,4.30
2022-11-06T02:02:01.164Z,4.77
2022-11-06T02:04:27.289Z,5.23
2022-11-06T02:06:29.249Z,5.17
2022-11-06T02:08:31.152Z,4.40
2022-11-06T02:10:33.144Z,5.00
2022-11-06T02:13:01.919Z,4.87
2022-11-06T02:15:14.243Z,5.10
2022-11-06T02:17:37.782Z,4.93
2022-11-06T02:20:05.315Z,5.50
2022-11-06T02:22:43.699Z,5.10
2022-11-06T02:25:23.279Z,4.93
2022-11-06T02:27:30.559Z,4.33
2022-11-06T02:29:38.345Z,5.23
2022-11-06T02:31:42.672Z,5.20
2022-11-06T02:33:51.517Z,5.33
2022-11-06T02:36:00.245Z,5.40
2022-11-06T02:38:10.256Z,5.47
2022-11-06T02:40:15.384Z,5.13
2022-11-06T02:42:19.752Z,5.43
2022-11-06T02:44:27.426Z,5.37
2022-11-06T02:46:35.993Z,5.67
2022-11-06T02:48:42.595Z,5.83
2022-11-06T02:50:50.604Z,6.13
2022-11-06T02:53:00.838Z,5.80
2022-11-06T02:55:27.352Z,5.47
2022-11-06T02:57:35.651Z,5.30
2022-11-06T02:59:49.691Z,5.13
2022-11-06T03:02:16.693Z,5.33
2022-11-06T03:05:05.662Z,5.63
2022-11-06T03:07:19.971Z,5.37
2022-11-06T03:09:28.846Z,5.17
2022-11-06T03:11:35.686Z,5.50
2022-11-06T03:13:54.218Z,5.80
2022-11-06T03:16:12.046Z,6.53
2022-11-06T03:18:35.302Z,6.50
2022-11-06T03:20:43.311Z,6.27
2022-11-06T03:23:16.623Z,6.73
2022-11-06T03:25:30.350Z,6.43
2022-11-06T03:28:00.760Z,7.40
2022-11-06T03:30:05.075Z,7.67
2022-11-06T03:32:18.607Z,7.90
2022-11-06T03:34:29.801Z,7.53
2022-11-06T03:36:36.756Z,7.60
2022-11-06T03:38:46.375Z,7.33
2022-11-06T03:40:53.858Z,7.97
2022-11-06T03:42:59.706Z,8.47
2022-11-06T03:45:09.340Z,7.97
2022-11-06T03:47:24.155Z,7.93
2022-11-06T03:49:35.184Z,8.13
2022-11-06T03:51:49.171Z,8.40
2022-11-06T03:53:59.594Z,8.83
2022-11-06T03:56:47.709Z,9.00
2022-11-06T03:58:50.532Z,8.73
2022-11-06T04:00:54.897Z,8.57
2022-11-06T04:03:05.450Z,8.77
2022-11-06T04:05:12.333Z,8.53
2022-11-06T04:07:20.091Z,8.40
2022-11-06T04:09:43.428Z,8.87
2022-11-06T04:12:19.354Z,8.77
2022-11-06T04:14:25.520Z,9.07
2022-11-06T04:16:38.765Z,8.87
2022-11-06T04:18:42.528Z,8.87
2022-11-06T04:21:29.253Z,9.47
2022-11-06T04:23:39.612Z,10.07
2022-11-06T04:26:35.936Z,10.10
2022-11-06T04:28:53.005Z,9.47
2022-11-06T04:31:17.719Z,9.33
2022-11-06T04:33:37.375Z,10.40
2022-11-06T04:35:58.010Z,10.17
2022-11-06T04:38:33.984Z,9.70
2022-11-06T04:40:38.674Z,9.40
2022-11-06T04:42:50.611Z,8.77
2022-11-06T04:45:03.662Z,9.10
2022-11-06T04:47:09.549Z,9.67
2022-11-06T04:49:15.383Z,9.90
2022-11-06T04:51:22.951Z,8.53
2022-11-06T04:53:26.125Z,9.10
2022-11-06T04:55:29.877Z,9.27
2022-11-06T04:57:32.264Z,9.23
2022-11-06T04:59:37.002Z,9.03
2022-11-06T05:01:38.922Z,9.77
2022-11-06T05:03:40.813Z,9.20
2022-11-06T05:05:42.818Z,8.57
2022-11-06T05:07:44.525Z,8.87
2022-11-06T05:09:46.575Z,8.90
2022-11-06T05:11:48.395Z,9.03
2022-11-06T05:13:50.382Z,8.77
2022-11-06T05:16:01.763Z,9.03
2022-11-06T05:18:04.121Z,8.60
2022-11-06T05:20:06.517Z,9.03
2022-11-06T05:22:33.439Z,8.60
2022-11-06T05:24:35.316Z,8.27
2022-11-06T05:26:38.081Z,8.33
2022-11-06T05:28:41.584Z,8.97
2022-11-06T05:30:45.411Z,8.13
2022-11-06T05:32:49.024Z,8.37
2022-11-06T05:34:50.954Z,7.60
2022-11-06T05:36:52.743Z,7.90
2022-11-06T05:38:55.652Z,7.20
2022-11-06T05:40:58.045Z,7.67
2022-11-06T05:43:01.092Z,7.57
2022-11-06T05:45:02.834Z,7.27
2022-11-06T05:47:04.676Z,7.40
2022-11-06T05:49:06.549Z,6.63
2022-11-06T05:51:08.764Z,7.33
2022-11-06T05:53:10.641Z,7.00
2022-11-06T05:55:15.086Z,6.83
2022-11-06T05:57:17.800Z,6.83
2022-11-06T05:59:19.832Z,6.60
2022-11-06T06:01:22.026Z,6.93
2022-11-06T06:03:24.980Z,6.50
2022-11-06T06:05:26.733Z,6.30
2022-11-06T06:07:28.612Z,6.63
2022-11-06T06:09:30.588Z,6.73
2022-11-06T06:11:32.647Z,6.70
2022-11-06T06:13:37.533Z,6.67
2022-11-06T06:15:40.168Z,7.30
2022-11-06T06:17:42.634Z,6.53
2022-11-06T06:19:44.481Z,6.37
2022-11-06T06:21:46.408Z,6.67
2022-11-06T06:23:48.352Z,7.23
2022-11-06T06:25:53.954Z,7.30
2022-11-06T06:27:57.021Z,7.17
2022-11-06T06:29:58.905Z,7.20
2022-11-06T06:32:00.673Z,6.93
2022-11-06T06:34:03.684Z,6.93
2022-11-06T06:36:06.085Z,7.43
2022-11-06T06:38:07.876Z,7.60
2022-11-06T06:40:11.574Z,8.73
2022-11-06T06:42:13.612Z,8.20
2022-11-06T06:44:16.891Z,7.70
2022-11-06T06:46:19.180Z,8.80
2022-11-06T06:48:21.024Z,8.30
2022-11-06T06:50:22.931Z,8.13
2022-11-06T06:52:24.700Z,8.13
2022-11-06T06:54:26.679Z,8.87
2022-11-06T06:56:28.847Z,8.57
2022-11-06T06:58:32.478Z,8.63
2022-11-06T07:00:34.655Z,8.13
2022-11-06T07:02:36.478Z,7.97
2022-11-06T07:04:39.725Z,7.00
2022-11-06T07:06:41.862Z,7.60
2022-11-06T07:08:43.789Z,7.73
2022-11-06T07:10:45.563Z,6.80
2022-11-06T07:12:47.728Z,7.17
2022-11-06T07:14:49.484Z,7.07
2022-11-06T07:16:53.846Z,7.43
2022-11-06T07:18:56.326Z,7.30
2022-11-06T07:20:58.351Z,7.00
2022-11-06T07:23:04.627Z,7.10
2022-11-06T07:25:06.761Z,7.50
2022-11-06T07:27:08.485Z,7.17
2022-11-06T07:29:10.836Z,6.63
2022-11-06T07:31:13.095Z,6.93
2022-11-06T07:33:17.673Z,6.70
2022-11-06T07:35:19.931Z,6.97
2022-11-06T07:37:22.002Z,6.53
2022-11-06T07:39:23.743Z,7.27
2022-11-06T07:41:25.877Z,6.77
2022-11-06T07:43:28.174Z,7.30
2022-11-06T07:45:30.146Z,7.07
2022-11-06T07:47:32.231Z,7.47
2022-11-06T07:49:37.667Z,7.33
2022-11-06T07:51:39.641Z,7.27
2022-11-06T07:53:41.563Z,6.57
2022-11-06T07:55:51.180Z,6.67
2022-11-06T07:57:53.374Z,6.47
2022-11-06T07:59:55.407Z,7.00
2022-11-06T08:01:58.219Z,8.13
2022-11-06T08:04:00.194Z,7.07
2022-11-06T08:06:05.741Z,7.40
2022-11-06T08:08:07.589Z,6.43
2022-11-06T08:10:10.058Z,6.33
2022-11-06T08:12:14.598Z,6.67
2022-11-06T08:14:16.611Z,6.60
2022-11-06T08:16:18.710Z,6.87
2022-11-06T08:18:20.930Z,7.80
2022-11-06T08:20:23.215Z,6.37
2022-11-06T08:22:25.045Z,7.43
2022-11-06T08:24:26.974Z,6.87
2022-11-06T08:26:29.613Z,6.83
2022-11-06T08:28:34.463Z,6.27
2022-11-06T08:30:36.585Z,7.23
2022-11-06T08:32:38.393Z,6.67
2022-11-06T08:34:40.156Z,6.57
2022-11-06T08:36:50.725Z,6.23
2022-11-06T08:38:53.244Z,6.10
2022-11-06T08:40:55.786Z,6.40
2022-11-06T08:43:01.926Z,6.57
2022-11-06T08:45:04.810Z,6.03
2022-11-06T08:47:09.556Z,6.13
2022-11-06T08:49:15.420Z,6.43
2022-11-06T08:51:17.261Z,6.60
2022-11-06T08:53:19.373Z,6.77
2022-11-06T08:55:21.613Z,6.60
2022-11-06T08:57:23.468Z,6.83
2022-11-06T08:59:25.509Z,6.40
2022-11-06T09:01:27.737Z,6.27
2022-11-06T09:03:30.708Z,6.27
2022-11-06T09:05:32.908Z,6.00
2022-11-06T09:07:37.549Z,6.23
2022-11-06T09:09:39.267Z,5.77
2022-11-06T09:11:41.189Z,5.70
2022-11-06T09:13:43.000Z,5.60
2022-11-06T09:15:45.068Z,5.67
2022-11-06T09:17:48.883Z,5.83
2022-11-06T09:19:51.660Z,5.43
2022-11-06T09:21:55.131Z,5.87
2022-11-06T09:23:57.190Z,5.60
2022-11-06T09:25:59.169Z,5.33
2022-11-06T09:28:01.119Z,5.30
2022-11-06T09:30:02.886Z,6.00
2022-11-06T09:32:04.816Z,5.27
2022-11-06T09:34:06.579Z,5.27
2022-11-06T09:36:08.531Z,4.80
2022-11-06T09:38:12.541Z,5.17
2022-11-06T09:40:54.259Z,5.17
2022-11-06T09:44:03.003Z,4.93
2022-11-06T09:45:55.964Z,5.13
2022-11-06T09:48:12.718Z,5.27
2022-11-06T09:50:23.191Z,4.50
2022-11-06T09:52:48.764Z,4.67
2022-11-06T09:55:00.740Z,4.50
2022-11-06T09:57:19.302Z,4.60
2022-11-06T09:59:21.815Z,3.90
2022-11-06T10:01:28.833Z,4.80
2022-11-06T10:03:56.152Z,4.50
2022-11-06T10:05:58.112Z,3.90
2022-11-06T10:08:04.600Z,3.93
2022-11-06T10:10:14.053Z,3.87
2022-11-06T10:12:24.883Z,4.23
2022-11-06T10:14:35.905Z,4.13
2022-11-06T10:16:59.440Z,4.03
2022-11-06T10:19:30.588Z,4.10
2022-11-06T10:21:41.001Z,3.87
2022-11-06T10:23:48.716Z,4.83
2022-11-06T10:26:01.792Z,4.80
2022-11-06T10:28:15.318Z,3.97
2022-11-06T10:30:19.638Z,4.00
2022-11-06T10:32:38.011Z,4.43
2022-11-06T10:34:44.328Z,3.97
2022-11-06T10:36:54.423Z,3.73
2022-11-06T10:38:59.120Z,4.43
2022-11-06T10:41:01.883Z,4.07
2022-11-06T10:43:23.816Z,3.63
2022-11-06T10:45:30.026Z,3.70
2022-11-06T10:47:45.091Z,4.40
2022-11-06T10:50:02.873Z,5.50
2022-11-06T10:52:04.672Z,4.07
2022-11-06T10:54:33.857Z,4.03
2022-11-06T10:57:03.175Z,3.30
2022-11-06T10:59:05.251Z,3.57
2022-11-06T11:01:12.334Z,3.80
2022-11-06T11:03:35.584Z,3.40
2022-11-06T11:05:40.602Z,3.40
2022-11-06T11:07:45.204Z,3.37
2022-11-06T11:09:49.546Z,4.00
2022-11-06T11:11:51.892Z,3.40
2022-11-06T11:13:56.585Z,3.30
2022-11-06T11:15:58.929Z,3.80
2022-11-06T11:18:34.192Z,3.40
2022-11-06T11:20:39.037Z,3.00
2022-11-06T11:22:41.157Z,3.20
2022-11-06T11:25:25.241Z,2.90
2022-11-06T11:27:28.414Z,2.90
2022-11-06T11:29:37.357Z,3.13
2022-11-06T11:31:40.270Z,2.80
2022-11-06T11:33:51.187Z,2.70
2022-11-06T11:35:54.645Z,3.27
2022-11-06T11:38:14.460Z,3.10
2022-11-06T11:40:19.353Z,2.80
2022-11-06T11:42:23.395Z,3.47
2022-11-06T11:44:25.261Z,3.13
2022-11-06T11:46:27.102Z,2.87
2022-11-06T11:48:40.952Z,2.83
2022-11-06T11:50:43.936Z,3.20
2022-11-06T11:52:48.223Z,3.83
2022-11-06T11:54:54.168Z,3.30
2022-11-06T11:57:05.288Z,3.60
2022-11-06T11:59:23.770Z,3.10
2022-11-06T12:01:53.145Z,3.30
2022-11-06T12:03:55.242Z,3.30
2022-11-06T12:06:14.439Z,3.20
2022-11-06T12:08:25.711Z,2.70
2022-11-06T12:10:38.368Z,2.90
2022-11-06T12:12:47.849Z,3.00
2022-11-06T12:15:07.303Z,3.17
2022-11-06T12:17:20.924Z,2.67
2022-11-06T12:19:24.273Z,2.63
2022-11-06T12:21:36.165Z,3.27
2022-11-06T12:24:02.290Z,3.93
2022-11-06T12:26:32.446Z,3.17
2022-11-06T12:28:37.634Z,2.57
2022-11-06T12:30:42.919Z,2.73
2022-11-06T12:33:59.698Z,2.57
2022-11-06T12:35:55.848Z,2.80
2022-11-06T12:38:17.943Z,2.70
2022-11-06T12:40:30.688Z,2.93
2022-11-06T12:42:34.718Z,2.20
2022-11-06T12:44:36.557Z,2.60
2022-11-06T12:47:06.992Z,2.40
2022-11-06T12:49:42.393Z,2.33
2022-11-06T12:52:05.497Z,2.30
2022-11-06T12:54:19.567Z,2.30
2022-11-06T12:56:39.447Z,2.97
2022-11-06T12:58:53.408Z,5.17
2022-11-06T13:01:13.555Z,3.50
2022-11-06T13:03:44.147Z,3.30
2022-11-06T13:05:55.995Z,2.60
2022-11-06T13:08:26.197Z,2.50
2022-11-06T13:10:37.215Z,2.63
2022-11-06T13:12:38.993Z,3.27
2022-11-06T13:14:41.842Z,3.60
2022-11-06T13:17:00.883Z,2.80
2022-11-06T13:19:37.949Z,2.10
2022-11-06T13:21:54.937Z,3.10
2022-11-06T13:24:15.611Z,3.90
2022-11-06T13:26:44.187Z,3.03
2022-11-06T13:28:56.208Z,2.53
2022-11-06T13:30:59.529Z,2.50
2022-11-06T13:33:25.419Z,2.40
2022-11-06T13:35:28.275Z,2.80
2022-11-06T13:37:41.812Z,3.27
2022-11-06T13:40:04.346Z,7.63
2022-11-06T13:42:39.425Z,3.07
2022-11-06T13:44:41.716Z,2.50
2022-11-06T13:47:09.276Z,2.30
2022-11-06T13:49:41.381Z,2.67
2022-11-06T13:51:55.941Z,2.60
2022-11-06T13:54:23.231Z,2.90
2022-11-06T13:56:43.588Z,2.60
2022-11-06T13:59:02.897Z,2.20
2022-11-06T14:01:31.043Z,2.67
2022-11-06T14:04:01.653Z,2.60
2022-11-06T14:06:15.443Z,2.80
2022-11-06T14:08:38.685Z,2.63
2022-11-06T14:10:53.753Z,2.50
2022-11-06T14:12:56.912Z,2.57
2022-11-06T14:15:22.202Z,2.67
2022-11-06T14:17:24.867Z,2.90
2022-11-06T14:19:30.485Z,3.37
2022-11-06T14:21:45.276Z,3.20
2022-11-06T14:23:47.723Z,3.07
2022-11-06T14:26:08.470Z,2.93
2022-11-06T14:28:11.762Z,3.00
2022-11-06T14:30:17.125Z,3.13
2022-11-06T14:32:19.035Z,3.10
2022-11-06T14:34:29.734Z,3.27
2022-11-06T14:36:37.696Z,3.03
2022-11-06T14:38:42.622Z,3.23
2022-11-06T14:40:44.985Z,2.70
2022-11-06T14:42:48.279Z,3.33
2022-11-06T14:45:10.598Z,2.97
2022-11-06T14:47:26.663Z,3.00
2022-11-06T14:49:48.590Z,3.30
2022-11-06T14:52:09.925Z,3.60
2022-11-06T14:54:22.433Z,3.10
2022-11-06T14:56:27.437Z,3.77
2022-11-06T14:58:38.319Z,3.03
2022-11-06T15:00:53.745Z,3.07
2022-11-06T15:02:55.799Z,3.20
2022-11-06T15:05:17.488Z,3.30
2022-11-06T15:08:05.002Z,3.07
2022-11-06T15:10:45.064Z,3.10
2022-11-06T15:13:21.119Z,2.90
2022-11-06T15:15:24.632Z,3.10
2022-11-06T15:17:33.978Z,3.03
2022-11-06T15:19:48.229Z,3.23
2022-11-06T15:21:56.190Z,2.73
2022-11-06T15:24:05.933Z,3.57
2022-11-06T15:26:33.711Z,3.63
2022-11-06T15:28:44.605Z,4.57
2022-11-06T15:30:59.919Z,4.93
2022-11-06T15:33:05.084Z,4.80
2022-11-06T15:35:14.379Z,4.60
2022-11-06T15:37:22.217Z,4.20
2022-11-06T15:39:37.947Z,3.67
2022-11-06T15:41:40.016Z,3.80
2022-11-06T15:43:45.071Z,4.40
2022-11-06T15:45:46.918Z,3.40
2022-11-06T15:48:01.172Z,3.87
2022-11-06T15:50:18.583Z,3.47
2022-11-06T15:52:24.570Z,3.30
2022-11-06T15:54:45.064Z,3.97
2022-11-06T15:56:49.069Z,3.67
2022-11-06T15:59:12.283Z,3.30
2022-11-06T16:01:14.992Z,3.50
2022-11-06T16:03:23.141Z,3.60
2022-11-06T16:05:28.230Z,4.10
2022-11-06T16:07:30.224Z,4.23
2022-11-06T16:09:32.574Z,4.03
2022-11-06T16:11:34.880Z,3.63
2022-11-06T16:13:37.093Z,3.50
2022-11-06T16:15:56.381Z,3.93
2022-11-06T16:18:06.258Z,4.27
2022-11-06T16:20:14.483Z,4.80
2022-11-06T16:22:27.181Z,2.80
2022-11-06T16:24:33.493Z,3.07
2022-11-06T16:26:51.361Z,3.10
2022-11-06T16:28:56.628Z,4.20
2022-11-06T16:31:06.930Z,3.53
2022-11-06T16:33:22.950Z,4.00
2022-11-06T16:35:37.703Z,4.27
2022-11-06T16:37:41.039Z,3.97
2022-11-06T16:39:50.613Z,3.83
2022-11-06T16:42:03.737Z,4.17
2022-11-06T16:44:31.287Z,6.10
2022-11-06T16:47:05.469Z,4.87
2022-11-06T16:49:37.009Z,5.60
2022-11-06T16:51:39.178Z,3.80
2022-11-06T16:53:48.395Z,15.53
2022-11-06T16:55:54.475Z,12.60
2022-11-06T16:58:00.813Z,5.60
2022-11-06T17:00:26.122Z,5.13
2022-11-06T17:02:32.608Z,4.17
2022-11-06T17:04:34.437Z,4.80
2022-11-06T17:06:37.433Z,5.67
2022-11-06T17:08:41.205Z,4.13
2022-11-06T17:10:47.866Z,4.10
2022-11-06T17:12:52.227Z,4.17
2022-11-06T17:14:56.537Z,4.07
2022-11-06T17:17:00.902Z,4.20
2022-11-06T17:19:02.829Z,3.93
2022-11-06T17:21:07.122Z,3.90
2022-11-06T17:23:15.765Z,4.10
2022-11-06T17:25:18.530Z,4.23
2022-11-06T17:27:20.810Z,4.07
2022-11-06T17:29:27.357Z,4.37
2022-11-06T17:32:07.160Z,3.70
2022-11-06T17:34:09.537Z,4.23
2022-11-06T17:36:31.192Z,4.40
2022-11-06T17:38:39.711Z,4.10
2022-11-06T17:40:48.128Z,3.83
2022-11-06T17:42:50.234Z,3.73
2022-11-06T17:44:52.285Z,4.73
2022-11-06T17:46:54.029Z,4.10
2022-11-06T17:48:56.536Z,4.00
2022-11-06T17:51:16.913Z,3.40
2022-11-06T17:53:20.039Z,4.00
2022-11-06T17:55:28.385Z,3.90
2022-11-06T17:57:30.272Z,3.53
2022-11-06T17:59:32.705Z,3.67
2022-11-06T18:01:34.790Z,3.47
2022-11-06T18:03:43.692Z,4.00
2022-11-06T18:05:48.858Z,3.90
2022-11-06T18:07:50.942Z,3.93
2022-11-06T18:09:52.772Z,4.13
2022-11-06T18:11:55.779Z,3.87
2022-11-06T18:13:58.404Z,7.67
2022-11-06T18:16:13.845Z,6.27
2022-11-06T18:18:15.708Z,6.80
2022-11-06T18:20:18.085Z,4.70
2022-11-06T18:22:20.627Z,5.20
2022-11-06T18:24:22.686Z,5.03
2022-11-06T18:26:24.621Z,4.60
2022-11-06T18:28:26.554Z,5.50
2022-11-06T18:30:28.624Z,7.07
2022-11-06T18:32:33.020Z,5.43
2022-11-06T18:34:34.837Z,6.43
2022-11-06T18:36:36.830Z,5.37
2022-11-06T18:38:40.717Z,4.90
2022-11-06T18:40:46.116Z,4.50
2022-11-06T18:42:55.382Z,3.97
2022-11-06T18:44:57.731Z,3.90
2022-11-06T18:47:00.333Z,3.47
2022-11-06T18:49:02.454Z,3.43
2022-11-06T18:51:12.835Z,3.30
2022-11-06T18:53:18.962Z,3.40
2022-11-06T18:55:20.971Z,3.53
2022-11-06T18:57:22.790Z,3.53
2022-11-06T18:59:24.736Z,3.40
2022-11-06T19:01:26.874Z,3.10
2022-11-06T19:03:28.724Z,3.13
2022-11-06T19:05:30.997Z,3.37
2022-11-06T19:07:35.020Z,3.30
2022-11-06T19:09:38.209Z,3.30
2022-11-06T19:11:40.147Z,3.47
2022-11-06T19:13:47.521Z,3.20
2022-11-06T19:15:50.727Z,3.30
2022-11-06T19:17:54.532Z,3.43
2022-11-06T19:19:59.878Z,3.00
2022-11-06T19:22:01.785Z,3.30
2022-11-06T19:24:05.842Z,3.00
2022-11-06T19:26:29.885Z,2.87
2022-11-06T19:28:35.966Z,2.73
2022-11-06T19:30:38.376Z,3.47
2022-11-06T19:32:41.416Z,2.93
2022-11-06T19:34:43.367Z,2.87
2022-11-06T19:36:49.117Z,3.07
2022-11-06T19:38:58.687Z,3.57
2022-11-06T19:41:02.521Z,4.00
2022-11-06T19:43:07.227Z,4.03
2022-11-06T19:45:09.584Z,3.43
2022-11-06T19:47:14.248Z,3.90
2022-11-06T19:49:17.275Z,3.70
2022-11-06T19:51:19.265Z,3.40
2022-11-06T19:53:23.309Z,2.60
2022-11-06T19:55:27.817Z,3.10
2022-11-06T19:57:30.619Z,3.13
2022-11-06T19:59:32.653Z,2.93
2022-11-06T20:01:34.773Z,2.90
2022-11-06T20:03:37.901Z,3.10
2022-11-06T20:05:41.612Z,2.73
2022-11-06T20:07:43.315Z,2.93
2022-11-06T20:09:46.674Z,3.40
2022-11-06T20:11:48.560Z,2.70
2022-11-06T20:13:53.516Z,3.00
2022-11-06T20:15:58.526Z,2.90
2022-11-06T20:18:01.834Z,3.20
2022-11-06T20:20:04.102Z,3.10
2022-11-06T20:22:06.036Z,4.40
2022-11-06T20:24:08.528Z,5.93
2022-11-06T20:26:10.534Z,5.17
2022-11-06T20:28:15.197Z,5.57
2022-11-06T20:30:17.418Z,3.40
2022-11-06T20:32:19.470Z,3.33
2022-11-06T20:34:21.844Z,3.10
2022-11-06T20:36:26.219Z,2.83
2022-11-06T20:38:31.684Z,3.57
2022-11-06T20:40:36.157Z,3.57
2022-11-06T20:42:38.448Z,3.30
2022-11-06T20:44:42.022Z,3.40
2022-11-06T20:46:47.540Z,3.83
2022-11-06T20:48:50.386Z,3.10
2022-11-06T20:51:00.964Z,3.53
2022-11-06T20:53:03.285Z,3.40
2022-11-06T20:55:05.460Z,3.43
2022-11-06T20:57:07.383Z,3.17
2022-11-06T20:59:10.280Z,3.30
2022-11-06T21:01:20.708Z,4.03
2022-11-06T21:03:22.586Z,3.13
2022-11-06T21:05:25.792Z,3.23
2022-11-06T21:07:30.010Z,3.30
2022-11-06T21:09:32.390Z,3.13
2022-11-06T21:11:35.003Z,3.40
2022-11-06T21:13:37.109Z,3.97
2022-11-06T21:15:40.641Z,3.50
2022-11-06T21:17:42.868Z,3.20
2022-11-06T21:19:45.053Z,3.23
2022-11-06T21:21:47.155Z,3.90
2022-11-06T21:23:51.201Z,3.20
2022-11-06T21:25:54.175Z,3.60
2022-11-06T21:27:56.308Z,3.40
2022-11-06T21:29:58.355Z,3.27
2022-11-06T21:32:00.214Z,3.37
2022-11-06T21:34:04.227Z,3.67
2022-11-06T21:36:11.197Z,3.80
2022-11-06T21:38:15.386Z,3.80
2022-11-06T21:40:18.093Z,3.47
2022-11-06T21:42:20.321Z,3.63
2022-11-06T21:44:26.349Z,3.93
2022-11-06T21:46:28.692Z,3.30
2022-11-06T21:48:47.701Z,4.27
2022-11-06T21:50:49.899Z,3.53
2022-11-06T21:53:13.138Z,3.57
2022-11-06T21:55:33.803Z,3.50
2022-11-06T21:57:35.684Z,3.53
2022-11-06T21:59:41.437Z,3.70
2022-11-06T22:01:43.825Z,3.50
2022-11-06T22:03:46.072Z,3.87
2022-11-06T22:05:48.035Z,4.00
2022-11-06T22:07:50.060Z,3.97
2022-11-06T22:09:52.243Z,4.53
2022-11-06T22:11:55.120Z,4.10
2022-11-06T22:14:00.945Z,3.80
2022-11-06T22:16:02.917Z,4.00
2022-11-06T22:18:05.178Z,4.10
2022-11-06T22:20:07.834Z,4.17
2022-11-06T22:22:09.653Z,4.03
2022-11-06T22:24:13.292Z,3.90
2022-11-06T22:26:18.952Z,3.83
2022-11-06T22:28:22.058Z,3.50
2022-11-06T22:30:23.832Z,4.10
2022-11-06T22:32:25.849Z,3.67
2022-11-06T22:34:27.675Z,3.80
2022-11-06T22:36:29.487Z,3.70
2022-11-06T22:38:32.153Z,3.90
2022-11-06T22:40:34.014Z,3.73
2022-11-06T22:42:35.965Z,3.63
2022-11-06T22:44:40.112Z,3.93
2022-11-06T22:46:42.308Z,3.63
2022-11-06T22:48:44.540Z,3.27
2022-11-06T22:50:46.545Z,3.57
2022-11-06T22:52:48.397Z,3.37
2022-11-06T22:54:50.297Z,3.93
2022-11-06T22:56:52.285Z,3.97
2022-11-06T22:58:58.925Z,3.50
2022-11-06T23:01:01.866Z,3.50
2022-11-06T23:03:03.929Z,3.97
2022-11-06T23:05:06.171Z,3.27
2022-11-06T23:07:07.899Z,3.20
2022-11-06T23:09:09.855Z,3.40
2022-11-06T23:11:13.684Z,3.23
2022-11-06T23:13:16.071Z,3.50
2022-11-06T23:15:18.223Z,3.03
2022-11-06T23:17:23.164Z,3.33
2022-11-06T23:19:25.571Z,3.33
2022-11-06T23:21:27.825Z,3.53
2022-11-06T23:23:29.689Z,3.40
2022-11-06T23:25:32.212Z,3.27
2022-11-06T23:27:34.989Z,3.80
2022-11-06T23:29:38.155Z,3.43
2022-11-06T23:31:41.288Z,3.30
2022-11-06T23:33:43.677Z,3.10
2022-11-06T23:35:46.175Z,3.03
2022-11-06T23:37:49.499Z,3.20
2022-11-06T23:39:52.972Z,3.23
2022-11-06T23:41:54.717Z,3.17
2022-11-06T23:43:57.568Z,3.10
2022-11-06T23:45:59.640Z,3.30
2022-11-06T23:48:07.442Z,2.97
2022-11-06T23:50:10.932Z,3.07
2022-11-06T23:52:12.868Z,3.50
2022-11-06T23:54:14.893Z,3.30
2022-11-06T23:56:16.926Z,3.00
2022-11-06T23:58:18.706Z,2.97
